sensor_id;sensor_type;location;lat;lon;timestamp;temperature;humidity
12815;DHT22;6472;52.328;13.070;2023-08-24T00:00:58;14.00;99.90
12815;DHT22;6472;52.328;13.070;2023-08-24T00:03:26;14.00;99.90
12815;DHT22;6472;52.328;13.070;2023-08-24T00:05:55;14.00;99.90
12815;DHT22;6472;52.328;13.070;2023-08-24T00:08:23;14.00;99.90
12815;DHT22;6472;52.328;13.070;2023-08-24T00:10:51;14.00;99.90
12815;DHT22;6472;52.328;13.070;2023-08-24T00:13:19;14.00;99.90
12815;DHT22;6472;52.328;13.070;2023-08-24T00:15:47;13.90;99.90
12815;DHT22;6472;52.328;13.070;2023-08-24T00:18:16;13.90;99.90
12815;DHT22;6472;52.328;13.070;2023-08-24T00:20:46;13.90;99.90
12815;DHT22;6472;52.328;13.070;2023-08-24T00:23:14;13.90;99.90
12815;DHT22;6472;52.328;13.070;2023-08-24T00:25:42;13.90;99.90
12815;DHT22;6472;52.328;13.070;2023-08-24T00:28:10;13.80;99.90
12815;DHT22;6472;52.328;13.070;2023-08-24T00:30:38;13.80;99.90
12815;DHT22;6472;52.328;13.070;2023-08-24T00:33:06;13.80;99.90
12815;DHT22;6472;52.328;13.070;2023-08-24T00:35:35;13.80;99.90
12815;DHT22;6472;52.328;13.070;2023-08-24T00:38:03;13.70;99.90
12815;DHT22;6472;52.328;13.070;2023-08-24T00:40:31;13.70;99.90
12815;DHT22;6472;52.328;13.070;2023-08-24T00:43:01;13.70;99.90
12815;DHT22;6472;52.328;13.070;2023-08-24T00:45:30;13.70;99.90
12815;DHT22;6472;52.328;13.070;2023-08-24T00:48:00;13.70;99.90
12815;DHT22;6472;52.328;13.070;2023-08-24T00:50:29;13.70;99.90
12815;DHT22;6472;52.328;13.070;2023-08-24T00:52:58;13.60;99.90
12815;DHT22;6472;52.328;13.070;2023-08-24T00:55:27;13.60;99.90
12815;DHT22;6472;52.328;13.070;2023-08-24T00:57:56;13.60;99.90
12815;DHT22;6472;52.328;13.070;2023-08-24T01:00:24;13.60;99.90
12815;DHT22;6472;52.328;13.070;2023-08-24T01:02:52;13.60;99.90
12815;DHT22;6472;52.328;13.070;2023-08-24T01:05:20;13.50;99.90
12815;DHT22;6472;52.328;13.070;2023-08-24T01:07:48;13.40;99.90
12815;DHT22;6472;52.328;13.070;2023-08-24T01:10:19;13.50;99.90
12815;DHT22;6472;52.328;13.070;2023-08-24T01:13:02;13.50;99.90
12815;DHT22;6472;52.328;13.070;2023-08-24T01:15:38;13.40;99.90
12815;DHT22;6472;52.328;13.070;2023-08-24T01:18:10;13.50;99.90
12815;DHT22;6472;52.328;13.070;2023-08-24T01:20:40;13.40;99.90
12815;DHT22;6472;52.328;13.070;2023-08-24T01:23:23;13.50;99.90
12815;DHT22;6472;52.328;13.070;2023-08-24T01:26:09;13.40;99.90
12815;DHT22;6472;52.328;13.070;2023-08-24T01:28:38;13.40;99.90
12815;DHT22;6472;52.328;13.070;2023-08-24T01:31:08;13.40;99.90
12815;DHT22;6472;52.328;13.070;2023-08-24T01:33:36;13.50;99.90
12815;DHT22;6472;52.328;13.070;2023-08-24T01:36:04;13.50;99.90
12815;DHT22;6472;52.328;13.070;2023-08-24T01:38:32;13.50;99.90
12815;DHT22;6472;52.328;13.070;2023-08-24T01:41:09;13.50;99.90
12815;DHT22;6472;52.328;13.070;2023-08-24T01:43:38;13.60;99.90
12815;DHT22;6472;52.328;13.070;2023-08-24T01:46:12;13.60;99.90
12815;DHT22;6472;52.328;13.070;2023-08-24T01:48:43;13.70;99.90
12815;DHT22;6472;52.328;13.070;2023-08-24T01:51:11;13.70;99.90
12815;DHT22;6472;52.328;13.070;2023-08-24T01:53:40;13.80;99.90
12815;DHT22;6472;52.328;13.070;2023-08-24T01:56:11;13.80;99.90
12815;DHT22;6472;52.328;13.070;2023-08-24T01:58:39;13.80;99.90
12815;DHT22;6472;52.328;13.070;2023-08-24T02:01:08;13.80;99.90
12815;DHT22;6472;52.328;13.070;2023-08-24T02:03:37;13.80;99.90
12815;DHT22;6472;52.328;13.070;2023-08-24T02:06:07;13.80;99.90
12815;DHT22;6472;52.328;13.070;2023-08-24T02:08:35;13.80;99.90
12815;DHT22;6472;52.328;13.070;2023-08-24T02:11:03;13.80;99.90
12815;DHT22;6472;52.328;13.070;2023-08-24T02:13:33;13.80;99.90
12815;DHT22;6472;52.328;13.070;2023-08-24T02:16:02;13.70;99.90
12815;DHT22;6472;52.328;13.070;2023-08-24T02:18:30;13.80;99.90
12815;DHT22;6472;52.328;13.070;2023-08-24T02:20:58;13.80;99.90
12815;DHT22;6472;52.328;13.070;2023-08-24T02:23:26;13.80;99.90
12815;DHT22;6472;52.328;13.070;2023-08-24T02:25:56;13.90;99.90
12815;DHT22;6472;52.328;13.070;2023-08-24T02:28:24;13.90;99.90
12815;DHT22;6472;52.328;13.070;2023-08-24T02:30:53;13.90;99.90
12815;DHT22;6472;52.328;13.070;2023-08-24T02:33:21;14.00;99.90
12815;DHT22;6472;52.328;13.070;2023-08-24T02:35:49;14.00;99.90
12815;DHT22;6472;52.328;13.070;2023-08-24T02:38:17;14.00;99.90
12815;DHT22;6472;52.328;13.070;2023-08-24T02:40:45;14.00;99.90
12815;DHT22;6472;52.328;13.070;2023-08-24T02:43:13;13.90;99.90
12815;DHT22;6472;52.328;13.070;2023-08-24T02:45:41;13.90;99.90
12815;DHT22;6472;52.328;13.070;2023-08-24T02:48:11;13.90;99.90
12815;DHT22;6472;52.328;13.070;2023-08-24T02:50:39;13.90;99.90
12815;DHT22;6472;52.328;13.070;2023-08-24T02:53:07;13.80;99.90
12815;DHT22;6472;52.328;13.070;2023-08-24T02:55:35;13.80;99.90
12815;DHT22;6472;52.328;13.070;2023-08-24T02:58:03;13.80;99.90
12815;DHT22;6472;52.328;13.070;2023-08-24T03:00:31;13.90;99.90
12815;DHT22;6472;52.328;13.070;2023-08-24T03:02:59;13.80;99.90
12815;DHT22;6472;52.328;13.070;2023-08-24T03:05:29;13.90;99.90
12815;DHT22;6472;52.328;13.070;2023-08-24T03:07:56;13.90;99.90
12815;DHT22;6472;52.328;13.070;2023-08-24T03:10:24;13.90;99.90
12815;DHT22;6472;52.328;13.070;2023-08-24T03:12:52;14.10;99.90
12815;DHT22;6472;52.328;13.070;2023-08-24T03:15:20;14.00;99.90
12815;DHT22;6472;52.328;13.070;2023-08-24T03:17:49;14.00;99.90
12815;DHT22;6472;52.328;13.070;2023-08-24T03:20:17;14.10;99.90
12815;DHT22;6472;52.328;13.070;2023-08-24T03:22:46;14.10;99.90
12815;DHT22;6472;52.328;13.070;2023-08-24T03:25:14;14.10;99.90
12815;DHT22;6472;52.328;13.070;2023-08-24T03:27:42;14.10;99.90
12815;DHT22;6472;52.328;13.070;2023-08-24T03:30:11;14.20;99.90
12815;DHT22;6472;52.328;13.070;2023-08-24T03:32:39;14.20;99.90
12815;DHT22;6472;52.328;13.070;2023-08-24T03:35:08;14.30;99.90
12815;DHT22;6472;52.328;13.070;2023-08-24T03:37:36;14.30;99.90
12815;DHT22;6472;52.328;13.070;2023-08-24T03:40:08;14.40;99.90
12815;DHT22;6472;52.328;13.070;2023-08-24T03:42:36;14.40;99.90
12815;DHT22;6472;52.328;13.070;2023-08-24T03:45:04;14.40;99.90
12815;DHT22;6472;52.328;13.070;2023-08-24T03:47:32;14.50;99.90
12815;DHT22;6472;52.328;13.070;2023-08-24T03:50:01;14.50;99.90
12815;DHT22;6472;52.328;13.070;2023-08-24T03:52:28;14.50;99.90
12815;DHT22;6472;52.328;13.070;2023-08-24T03:54:58;14.50;99.90
12815;DHT22;6472;52.328;13.070;2023-08-24T03:57:28;14.60;99.90
12815;DHT22;6472;52.328;13.070;2023-08-24T03:59:59;14.60;99.90
12815;DHT22;6472;52.328;13.070;2023-08-24T04:02:30;14.60;99.90
12815;DHT22;6472;52.328;13.070;2023-08-24T04:04:58;14.70;99.90
12815;DHT22;6472;52.328;13.070;2023-08-24T04:07:26;14.70;99.90
12815;DHT22;6472;52.328;13.070;2023-08-24T04:09:54;14.70;99.90
12815;DHT22;6472;52.328;13.070;2023-08-24T04:12:22;14.70;99.90
12815;DHT22;6472;52.328;13.070;2023-08-24T04:14:52;14.70;99.90
12815;DHT22;6472;52.328;13.070;2023-08-24T04:17:20;14.80;99.90
12815;DHT22;6472;52.328;13.070;2023-08-24T04:19:48;14.80;99.90
12815;DHT22;6472;52.328;13.070;2023-08-24T04:22:16;14.90;99.90
12815;DHT22;6472;52.328;13.070;2023-08-24T04:24:46;14.90;99.90
12815;DHT22;6472;52.328;13.070;2023-08-24T04:27:15;14.90;99.90
12815;DHT22;6472;52.328;13.070;2023-08-24T04:29:43;14.90;99.90
12815;DHT22;6472;52.328;13.070;2023-08-24T04:32:13;14.90;99.90
12815;DHT22;6472;52.328;13.070;2023-08-24T04:34:41;14.90;99.90
12815;DHT22;6472;52.328;13.070;2023-08-24T04:37:09;14.90;99.90
12815;DHT22;6472;52.328;13.070;2023-08-24T04:39:37;15.00;99.90
12815;DHT22;6472;52.328;13.070;2023-08-24T04:42:05;15.00;99.90
12815;DHT22;6472;52.328;13.070;2023-08-24T04:44:34;15.00;99.90
12815;DHT22;6472;52.328;13.070;2023-08-24T04:47:02;15.00;99.90
12815;DHT22;6472;52.328;13.070;2023-08-24T04:49:31;15.10;99.90
12815;DHT22;6472;52.328;13.070;2023-08-24T04:51:59;15.10;99.90
12815;DHT22;6472;52.328;13.070;2023-08-24T04:54:27;15.30;99.90
12815;DHT22;6472;52.328;13.070;2023-08-24T04:56:55;15.20;99.90
12815;DHT22;6472;52.328;13.070;2023-08-24T04:59:23;15.20;99.90
12815;DHT22;6472;52.328;13.070;2023-08-24T05:01:51;15.30;99.90
12815;DHT22;6472;52.328;13.070;2023-08-24T05:04:19;15.30;99.90
12815;DHT22;6472;52.328;13.070;2023-08-24T05:06:49;15.40;99.90
12815;DHT22;6472;52.328;13.070;2023-08-24T05:09:17;15.50;99.90
12815;DHT22;6472;52.328;13.070;2023-08-24T05:11:45;15.50;99.90
12815;DHT22;6472;52.328;13.070;2023-08-24T05:14:12;15.60;99.90
12815;DHT22;6472;52.328;13.070;2023-08-24T05:16:41;15.70;99.90
12815;DHT22;6472;52.328;13.070;2023-08-24T05:19:09;15.80;99.90
12815;DHT22;6472;52.328;13.070;2023-08-24T05:21:37;15.90;99.90
12815;DHT22;6472;52.328;13.070;2023-08-24T05:24:06;16.00;99.90
12815;DHT22;6472;52.328;13.070;2023-08-24T05:26:34;16.00;99.90
12815;DHT22;6472;52.328;13.070;2023-08-24T05:29:02;16.10;99.90
12815;DHT22;6472;52.328;13.070;2023-08-24T05:31:30;16.10;99.90
12815;DHT22;6472;52.328;13.070;2023-08-24T05:33:58;16.20;99.90
12815;DHT22;6472;52.328;13.070;2023-08-24T05:36:26;16.60;99.90
12815;DHT22;6472;52.328;13.070;2023-08-24T05:38:54;17.00;99.90
12815;DHT22;6472;52.328;13.070;2023-08-24T05:41:33;17.30;99.90
12815;DHT22;6472;52.328;13.070;2023-08-24T05:44:03;17.90;99.90
12815;DHT22;6472;52.328;13.070;2023-08-24T05:46:31;18.20;99.90
12815;DHT22;6472;52.328;13.070;2023-08-24T05:48:59;18.30;99.90
12815;DHT22;6472;52.328;13.070;2023-08-24T05:51:27;18.40;99.90
12815;DHT22;6472;52.328;13.070;2023-08-24T05:53:55;18.50;99.90
12815;DHT22;6472;52.328;13.070;2023-08-24T05:56:25;18.60;99.90
12815;DHT22;6472;52.328;13.070;2023-08-24T05:58:56;18.40;99.90
12815;DHT22;6472;52.328;13.070;2023-08-24T06:01:25;18.40;99.90
12815;DHT22;6472;52.328;13.070;2023-08-24T06:03:53;18.30;99.90
12815;DHT22;6472;52.328;13.070;2023-08-24T06:06:21;18.50;99.90
12815;DHT22;6472;52.328;13.070;2023-08-24T06:08:49;18.50;99.90
12815;DHT22;6472;52.328;13.070;2023-08-24T06:11:17;18.50;99.90
12815;DHT22;6472;52.328;13.070;2023-08-24T06:13:45;18.60;99.90
12815;DHT22;6472;52.328;13.070;2023-08-24T06:16:15;18.80;99.90
12815;DHT22;6472;52.328;13.070;2023-08-24T06:18:43;18.80;99.90
12815;DHT22;6472;52.328;13.070;2023-08-24T06:21:11;18.90;99.90
12815;DHT22;6472;52.328;13.070;2023-08-24T06:23:39;19.00;99.90
12815;DHT22;6472;52.328;13.070;2023-08-24T06:26:07;19.00;99.90
12815;DHT22;6472;52.328;13.070;2023-08-24T06:28:35;19.10;99.90
12815;DHT22;6472;52.328;13.070;2023-08-24T06:31:03;19.30;99.90
12815;DHT22;6472;52.328;13.070;2023-08-24T06:33:35;19.40;99.90
12815;DHT22;6472;52.328;13.070;2023-08-24T06:36:04;19.50;99.90
12815;DHT22;6472;52.328;13.070;2023-08-24T06:38:32;19.60;99.90
12815;DHT22;6472;52.328;13.070;2023-08-24T06:41:00;19.70;99.90
12815;DHT22;6472;52.328;13.070;2023-08-24T06:43:28;19.80;99.90
12815;DHT22;6472;52.328;13.070;2023-08-24T06:45:57;20.00;99.90
12815;DHT22;6472;52.328;13.070;2023-08-24T06:48:25;20.20;99.90
12815;DHT22;6472;52.328;13.070;2023-08-24T06:50:54;20.30;99.90
12815;DHT22;6472;52.328;13.070;2023-08-24T06:53:22;20.50;99.90
12815;DHT22;6472;52.328;13.070;2023-08-24T06:55:59;20.70;99.90
12815;DHT22;6472;52.328;13.070;2023-08-24T06:58:42;20.90;99.90
12815;DHT22;6472;52.328;13.070;2023-08-24T07:01:10;21.10;99.90
12815;DHT22;6472;52.328;13.070;2023-08-24T07:03:38;21.20;99.90
12815;DHT22;6472;52.328;13.070;2023-08-24T07:06:07;21.40;99.90
12815;DHT22;6472;52.328;13.070;2023-08-24T07:08:35;21.60;99.90
12815;DHT22;6472;52.328;13.070;2023-08-24T07:11:04;21.80;99.90
12815;DHT22;6472;52.328;13.070;2023-08-24T07:13:32;22.00;99.90
12815;DHT22;6472;52.328;13.070;2023-08-24T07:16:01;22.20;99.90
12815;DHT22;6472;52.328;13.070;2023-08-24T07:18:30;22.40;99.90
12815;DHT22;6472;52.328;13.070;2023-08-24T07:20:58;22.30;99.90
12815;DHT22;6472;52.328;13.070;2023-08-24T07:23:28;22.40;99.90
12815;DHT22;6472;52.328;13.070;2023-08-24T07:25:56;22.60;99.90
12815;DHT22;6472;52.328;13.070;2023-08-24T07:28:24;22.80;99.90
12815;DHT22;6472;52.328;13.070;2023-08-24T07:30:52;22.90;99.90
12815;DHT22;6472;52.328;13.070;2023-08-24T07:33:22;23.20;99.90
12815;DHT22;6472;52.328;13.070;2023-08-24T07:35:51;23.40;99.90
12815;DHT22;6472;52.328;13.070;2023-08-24T07:38:19;23.50;99.90
12815;DHT22;6472;52.328;13.070;2023-08-24T07:40:49;23.70;99.90
12815;DHT22;6472;52.328;13.070;2023-08-24T07:43:17;23.80;99.90
12815;DHT22;6472;52.328;13.070;2023-08-24T07:45:47;23.90;99.90
12815;DHT22;6472;52.328;13.070;2023-08-24T07:48:15;24.00;99.90
12815;DHT22;6472;52.328;13.070;2023-08-24T07:50:44;24.20;99.90
12815;DHT22;6472;52.328;13.070;2023-08-24T07:53:12;24.40;99.90
12815;DHT22;6472;52.328;13.070;2023-08-24T07:55:41;24.60;99.90
12815;DHT22;6472;52.328;13.070;2023-08-24T07:58:12;24.70;99.90
12815;DHT22;6472;52.328;13.070;2023-08-24T08:00:40;24.70;99.90
12815;DHT22;6472;52.328;13.070;2023-08-24T08:03:08;24.90;99.90
12815;DHT22;6472;52.328;13.070;2023-08-24T08:05:36;24.80;99.90
12815;DHT22;6472;52.328;13.070;2023-08-24T08:08:05;24.60;99.90
12815;DHT22;6472;52.328;13.070;2023-08-24T08:10:32;24.70;99.90
12815;DHT22;6472;52.328;13.070;2023-08-24T08:13:00;24.50;99.90
12815;DHT22;6472;52.328;13.070;2023-08-24T08:15:30;24.30;99.90
12815;DHT22;6472;52.328;13.070;2023-08-24T08:17:58;24.20;99.90
12815;DHT22;6472;52.328;13.070;2023-08-24T08:20:26;24.10;99.90
12815;DHT22;6472;52.328;13.070;2023-08-24T08:22:54;24.10;99.90
12815;DHT22;6472;52.328;13.070;2023-08-24T08:25:22;24.10;99.90
12815;DHT22;6472;52.328;13.070;2023-08-24T08:27:50;24.20;99.90
12815;DHT22;6472;52.328;13.070;2023-08-24T08:30:19;24.20;99.90
12815;DHT22;6472;52.328;13.070;2023-08-24T08:32:49;24.40;99.90
12815;DHT22;6472;52.328;13.070;2023-08-24T08:35:18;24.40;99.90
12815;DHT22;6472;52.328;13.070;2023-08-24T08:37:46;24.50;99.90
12815;DHT22;6472;52.328;13.070;2023-08-24T08:40:17;24.60;99.90
12815;DHT22;6472;52.328;13.070;2023-08-24T08:42:45;24.80;99.90
12815;DHT22;6472;52.328;13.070;2023-08-24T08:45:14;24.90;99.90
12815;DHT22;6472;52.328;13.070;2023-08-24T08:47:42;24.80;99.90
12815;DHT22;6472;52.328;13.070;2023-08-24T08:50:11;24.80;99.90
12815;DHT22;6472;52.328;13.070;2023-08-24T08:52:39;24.70;99.90
12815;DHT22;6472;52.328;13.070;2023-08-24T08:55:07;24.70;99.90
12815;DHT22;6472;52.328;13.070;2023-08-24T08:57:38;24.80;99.90
12815;DHT22;6472;52.328;13.070;2023-08-24T09:00:10;24.90;99.90
12815;DHT22;6472;52.328;13.070;2023-08-24T09:02:42;24.90;99.90
12815;DHT22;6472;52.328;13.070;2023-08-24T09:05:13;25.00;99.90
12815;DHT22;6472;52.328;13.070;2023-08-24T09:07:41;24.90;99.90
12815;DHT22;6472;52.328;13.070;2023-08-24T09:10:09;25.10;99.90
12815;DHT22;6472;52.328;13.070;2023-08-24T09:12:37;25.10;99.90
12815;DHT22;6472;52.328;13.070;2023-08-24T09:15:06;24.90;99.90
12815;DHT22;6472;52.328;13.070;2023-08-24T09:17:34;24.70;99.90
12815;DHT22;6472;52.328;13.070;2023-08-24T09:20:06;24.70;99.90
12815;DHT22;6472;52.328;13.070;2023-08-24T09:25:04;24.50;99.90
12815;DHT22;6472;52.328;13.070;2023-08-24T09:27:34;24.30;99.90
12815;DHT22;6472;52.328;13.070;2023-08-24T09:30:03;24.20;99.90
12815;DHT22;6472;52.328;13.070;2023-08-24T09:32:32;24.00;99.90
12815;DHT22;6472;52.328;13.070;2023-08-24T09:35:02;23.90;99.90
12815;DHT22;6472;52.328;13.070;2023-08-24T09:37:32;24.00;99.90
12815;DHT22;6472;52.328;13.070;2023-08-24T09:40:03;24.10;99.90
12815;DHT22;6472;52.328;13.070;2023-08-24T09:42:37;24.20;99.90
12815;DHT22;6472;52.328;13.070;2023-08-24T09:45:08;24.50;99.90
12815;DHT22;6472;52.328;13.070;2023-08-24T09:47:37;24.60;99.90
12815;DHT22;6472;52.328;13.070;2023-08-24T09:50:06;24.80;99.90
12815;DHT22;6472;52.328;13.070;2023-08-24T09:52:35;24.90;99.90
12815;DHT22;6472;52.328;13.070;2023-08-24T09:55:06;24.90;99.90
12815;DHT22;6472;52.328;13.070;2023-08-24T09:57:38;24.70;99.90
12815;DHT22;6472;52.328;13.070;2023-08-24T10:00:07;24.90;99.90
12815;DHT22;6472;52.328;13.070;2023-08-24T10:02:45;24.90;99.90
12815;DHT22;6472;52.328;13.070;2023-08-24T10:05:20;24.90;99.90
12815;DHT22;6472;52.328;13.070;2023-08-24T10:08:05;24.90;99.90
12815;DHT22;6472;52.328;13.070;2023-08-24T10:10:37;25.00;99.90
12815;DHT22;6472;52.328;13.070;2023-08-24T10:13:11;25.20;99.90
12815;DHT22;6472;52.328;13.070;2023-08-24T10:15:42;25.20;99.90
12815;DHT22;6472;52.328;13.070;2023-08-24T10:18:14;25.30;99.90
12815;DHT22;6472;52.328;13.070;2023-08-24T10:20:43;25.30;99.90
12815;DHT22;6472;52.328;13.070;2023-08-24T10:23:13;25.20;99.90
12815;DHT22;6472;52.328;13.070;2023-08-24T10:25:44;25.20;99.90
12815;DHT22;6472;52.328;13.070;2023-08-24T10:28:14;25.20;99.90
12815;DHT22;6472;52.328;13.070;2023-08-24T10:30:44;25.10;99.90
12815;DHT22;6472;52.328;13.070;2023-08-24T10:33:13;25.00;99.90
12815;DHT22;6472;52.328;13.070;2023-08-24T10:35:42;25.00;99.90
12815;DHT22;6472;52.328;13.070;2023-08-24T10:38:24;25.20;99.90
12815;DHT22;6472;52.328;13.070;2023-08-24T10:41:02;25.10;99.90
12815;DHT22;6472;52.328;13.070;2023-08-24T10:43:34;25.20;99.90
12815;DHT22;6472;52.328;13.070;2023-08-24T10:46:02;25.10;99.90
12815;DHT22;6472;52.328;13.070;2023-08-24T10:48:57;25.20;99.90
12815;DHT22;6472;52.328;13.070;2023-08-24T10:51:26;25.20;99.90
12815;DHT22;6472;52.328;13.070;2023-08-24T10:53:58;25.10;99.90
12815;DHT22;6472;52.328;13.070;2023-08-24T10:56:36;25.10;99.90
12815;DHT22;6472;52.328;13.070;2023-08-24T10:59:13;25.20;99.90
12815;DHT22;6472;52.328;13.070;2023-08-24T11:01:42;25.20;99.90
12815;DHT22;6472;52.328;13.070;2023-08-24T11:04:11;25.10;99.90
12815;DHT22;6472;52.328;13.070;2023-08-24T11:06:54;25.00;99.90
12815;DHT22;6472;52.328;13.070;2023-08-24T11:09:22;25.10;99.90
12815;DHT22;6472;52.328;13.070;2023-08-24T11:12:00;25.10;99.90
12815;DHT22;6472;52.328;13.070;2023-08-24T11:14:28;25.20;99.90
12815;DHT22;6472;52.328;13.070;2023-08-24T11:16:59;25.20;99.90
12815;DHT22;6472;52.328;13.070;2023-08-24T11:19:27;25.30;99.90
12815;DHT22;6472;52.328;13.070;2023-08-24T11:21:57;25.30;99.90
12815;DHT22;6472;52.328;13.070;2023-08-24T11:24:26;25.40;99.90
12815;DHT22;6472;52.328;13.070;2023-08-24T11:26:55;25.40;99.90
12815;DHT22;6472;52.328;13.070;2023-08-24T11:29:25;25.50;99.90
12815;DHT22;6472;52.328;13.070;2023-08-24T11:31:54;25.50;99.10
12815;DHT22;6472;52.328;13.070;2023-08-24T11:34:25;25.50;99.10
12815;DHT22;6472;52.328;13.070;2023-08-24T11:36:53;25.50;99.60
12815;DHT22;6472;52.328;13.070;2023-08-24T11:39:22;25.70;99.40
12815;DHT22;6472;52.328;13.070;2023-08-24T11:42:00;25.80;99.40
12815;DHT22;6472;52.328;13.070;2023-08-24T11:44:30;25.90;98.80
12815;DHT22;6472;52.328;13.070;2023-08-24T11:47:14;25.90;99.70
12815;DHT22;6472;52.328;13.070;2023-08-24T11:49:42;25.80;99.90
12815;DHT22;6472;52.328;13.070;2023-08-24T11:52:12;25.90;99.30
12815;DHT22;6472;52.328;13.070;2023-08-24T11:54:43;26.00;99.00
12815;DHT22;6472;52.328;13.070;2023-08-24T11:57:12;26.10;98.30
12815;DHT22;6472;52.328;13.070;2023-08-24T11:59:43;26.20;97.40
12815;DHT22;6472;52.328;13.070;2023-08-24T12:02:11;26.20;97.40
12815;DHT22;6472;52.328;13.070;2023-08-24T12:04:41;26.20;98.10
12815;DHT22;6472;52.328;13.070;2023-08-24T12:07:11;26.20;96.30
12815;DHT22;6472;52.328;13.070;2023-08-24T12:09:39;26.20;95.40
12815;DHT22;6472;52.328;13.070;2023-08-24T12:12:12;26.10;96.30
12815;DHT22;6472;52.328;13.070;2023-08-24T12:14:43;26.20;95.60
12815;DHT22;6472;52.328;13.070;2023-08-24T12:17:13;26.20;95.40
12815;DHT22;6472;52.328;13.070;2023-08-24T12:19:42;26.30;96.10
12815;DHT22;6472;52.328;13.070;2023-08-24T12:22:14;26.30;95.60
12815;DHT22;6472;52.328;13.070;2023-08-24T12:24:45;26.30;95.60
12815;DHT22;6472;52.328;13.070;2023-08-24T12:27:20;26.50;97.60
12815;DHT22;6472;52.328;13.070;2023-08-24T12:29:50;26.60;94.60
12815;DHT22;6472;52.328;13.070;2023-08-24T12:32:19;26.60;95.40
12815;DHT22;6472;52.328;13.070;2023-08-24T12:34:50;26.70;95.70
12815;DHT22;6472;52.328;13.070;2023-08-24T12:37:20;26.80;97.20
12815;DHT22;6472;52.328;13.070;2023-08-24T12:39:48;27.00;96.00
12815;DHT22;6472;52.328;13.070;2023-08-24T12:42:19;27.10;95.20
12815;DHT22;6472;52.328;13.070;2023-08-24T12:44:47;27.10;95.40
12815;DHT22;6472;52.328;13.070;2023-08-24T12:47:16;27.00;94.40
12815;DHT22;6472;52.328;13.070;2023-08-24T12:49:47;27.10;95.60
12815;DHT22;6472;52.328;13.070;2023-08-24T12:52:17;27.20;92.90
12815;DHT22;6472;52.328;13.070;2023-08-24T12:54:45;27.40;92.20
12815;DHT22;6472;52.328;13.070;2023-08-24T12:57:13;27.50;93.00
12815;DHT22;6472;52.328;13.070;2023-08-24T12:59:41;27.60;90.30
12815;DHT22;6472;52.328;13.070;2023-08-24T13:02:09;27.60;90.80
12815;DHT22;6472;52.328;13.070;2023-08-24T13:04:52;27.60;90.50
12815;DHT22;6472;52.328;13.070;2023-08-24T13:07:21;27.70;90.80
12815;DHT22;6472;52.328;13.070;2023-08-24T13:09:49;27.50;91.70
12815;DHT22;6472;52.328;13.070;2023-08-24T13:12:20;27.50;91.90
12815;DHT22;6472;52.328;13.070;2023-08-24T13:14:48;27.60;93.20
12815;DHT22;6472;52.328;13.070;2023-08-24T13:17:16;27.70;91.10
12815;DHT22;6472;52.328;13.070;2023-08-24T13:19:44;27.70;90.50
12815;DHT22;6472;52.328;13.070;2023-08-24T13:22:14;27.70;91.70
12815;DHT22;6472;52.328;13.070;2023-08-24T13:24:42;27.80;93.60
12815;DHT22;6472;52.328;13.070;2023-08-24T13:27:10;27.90;90.10
12815;DHT22;6472;52.328;13.070;2023-08-24T13:29:39;28.10;86.70
12815;DHT22;6472;52.328;13.070;2023-08-24T13:32:07;28.10;90.70
12815;DHT22;6472;52.328;13.070;2023-08-24T13:34:36;28.30;90.90
12815;DHT22;6472;52.328;13.070;2023-08-24T13:37:04;28.20;91.00
12815;DHT22;6472;52.328;13.070;2023-08-24T13:39:33;28.20;89.80
12815;DHT22;6472;52.328;13.070;2023-08-24T13:42:02;28.30;88.50
12815;DHT22;6472;52.328;13.070;2023-08-24T13:44:30;28.20;88.50
12815;DHT22;6472;52.328;13.070;2023-08-24T13:46:58;28.20;89.50
12815;DHT22;6472;52.328;13.070;2023-08-24T13:49:26;28.20;88.50
12815;DHT22;6472;52.328;13.070;2023-08-24T13:52:06;28.10;88.90
12815;DHT22;6472;52.328;13.070;2023-08-24T13:54:36;28.20;87.40
12815;DHT22;6472;52.328;13.070;2023-08-24T13:57:04;28.10;85.80
12815;DHT22;6472;52.328;13.070;2023-08-24T13:59:32;28.10;84.50
12815;DHT22;6472;52.328;13.070;2023-08-24T14:02:00;28.00;87.70
12815;DHT22;6472;52.328;13.070;2023-08-24T14:04:28;28.00;90.00
12815;DHT22;6472;52.328;13.070;2023-08-24T14:06:56;27.90;86.30
12815;DHT22;6472;52.328;13.070;2023-08-24T14:09:24;27.90;84.70
12815;DHT22;6472;52.328;13.070;2023-08-24T14:11:54;27.70;84.50
12815;DHT22;6472;52.328;13.070;2023-08-24T14:14:22;27.70;88.00
12815;DHT22;6472;52.328;13.070;2023-08-24T14:16:54;27.90;88.10
12815;DHT22;6472;52.328;13.070;2023-08-24T14:19:23;28.00;86.80
12815;DHT22;6472;52.328;13.070;2023-08-24T14:21:51;28.20;84.20
12815;DHT22;6472;52.328;13.070;2023-08-24T14:24:19;28.30;82.50
12815;DHT22;6472;52.328;13.070;2023-08-24T14:26:49;28.30;84.20
12815;DHT22;6472;52.328;13.070;2023-08-24T14:29:19;28.40;84.20
12815;DHT22;6472;52.328;13.070;2023-08-24T14:31:47;28.30;87.00
12815;DHT22;6472;52.328;13.070;2023-08-24T14:34:14;28.10;85.40
12815;DHT22;6472;52.328;13.070;2023-08-24T14:36:42;28.20;85.30
12815;DHT22;6472;52.328;13.070;2023-08-24T14:39:11;28.20;83.40
12815;DHT22;6472;52.328;13.070;2023-08-24T14:41:39;28.10;87.30
12815;DHT22;6472;52.328;13.070;2023-08-24T14:44:07;28.10;83.40
12815;DHT22;6472;52.328;13.070;2023-08-24T14:46:36;27.90;85.40
12815;DHT22;6472;52.328;13.070;2023-08-24T14:49:05;27.90;87.70
12815;DHT22;6472;52.328;13.070;2023-08-24T14:51:35;27.90;89.00
12815;DHT22;6472;52.328;13.070;2023-08-24T14:54:03;27.90;86.20
12815;DHT22;6472;52.328;13.070;2023-08-24T14:56:33;27.90;87.30
12815;DHT22;6472;52.328;13.070;2023-08-24T14:59:02;27.90;86.70
12815;DHT22;6472;52.328;13.070;2023-08-24T15:01:30;27.90;86.40
12815;DHT22;6472;52.328;13.070;2023-08-24T15:03:59;27.80;86.00
12815;DHT22;6472;52.328;13.070;2023-08-24T15:06:27;27.60;86.90
12815;DHT22;6472;52.328;13.070;2023-08-24T15:08:56;27.60;86.90
12815;DHT22;6472;52.328;13.070;2023-08-24T15:11:25;27.80;84.00
12815;DHT22;6472;52.328;13.070;2023-08-24T15:13:53;27.70;84.90
12815;DHT22;6472;52.328;13.070;2023-08-24T15:16:21;27.60;83.50
12815;DHT22;6472;52.328;13.070;2023-08-24T15:18:49;27.50;84.30
12815;DHT22;6472;52.328;13.070;2023-08-24T15:21:19;27.40;85.50
12815;DHT22;6472;52.328;13.070;2023-08-24T15:23:47;27.30;85.40
12815;DHT22;6472;52.328;13.070;2023-08-24T15:26:14;27.30;85.10
12815;DHT22;6472;52.328;13.070;2023-08-24T15:29:08;27.40;83.60
12815;DHT22;6472;52.328;13.070;2023-08-24T15:31:36;27.50;83.20
12815;DHT22;6472;52.328;13.070;2023-08-24T15:34:04;27.50;84.30
12815;DHT22;6472;52.328;13.070;2023-08-24T15:36:34;27.40;84.80
12815;DHT22;6472;52.328;13.070;2023-08-24T15:39:02;27.20;86.30
12815;DHT22;6472;52.328;13.070;2023-08-24T15:41:31;27.20;85.90
12815;DHT22;6472;52.328;13.070;2023-08-24T15:43:59;26.90;86.20
12815;DHT22;6472;52.328;13.070;2023-08-24T15:46:27;27.00;87.40